Lakes of Four Seasons, Indiana
Current Conditions -  °F | °C
As of 5:35 AM on Thursday 27 Nov 2014 (Local Time) from KIGQ Reporting Station
Overcast Overcast  
Wind Chill: -8°   Ceiling: 7000
Heat Index: -3°   Visibility: 10mi
Dew Point: -7°   Wind: 8mph
Humidity: 75%   Direction: 310°NW
Pressure: 30.25"   Gusts: NA
Location:  41.4039°N, 87.3294°W
Report Text: KIGQ 271135Z AUTO 31007KT 10SM SCT049 BKN070 OVC110 M03/M07 A3025 RMK AO2 T10331071
Loading
Personal Weather Stations






























Interactive Weather Map New forecast layout! Learn more

10-Day Weather Forecast

Advertisements
Track Severe Weather on mobile